Time,TemperatureF,DewpointF,PressureIn,WindDirection,WindDirectionDegrees,WindSpeedMPH,WindSpeedGustMPH,Humidity,HourlyPrecipIn,Conditions,Clouds,dailyrainin,SoftwareType,DateUTC
2013-07-24 00:29:00,64.9,64.3,29.49,NE,53,0.0,2.0,98,0.00,,---,0.00,VWS V14.00,2013-07-24 04:29:00,
2013-07-24 00:59:00,64.5,63.6,29.49,NE,38,2.0,2.0,97,0.00,,---,0.00,VWS V14.00,2013-07-24 04:59:00,
2013-07-24 01:29:00,64.2,63.3,29.50,East,94,0.0,1.0,97,0.00,,---,0.00,VWS V14.00,2013-07-24 05:29:00,
2013-07-24 01:59:00,63.2,62.0,29.50,SSE,163,2.0,2.0,96,0.00,,---,0.00,VWS V14.00,2013-07-24 05:59:00,
2013-07-24 02:29:00,61.0,58.7,29.51,NE,41,1.0,3.0,92,0.00,,---,0.00,VWS V14.00,2013-07-24 06:29:00,
2013-07-24 02:59:00,59.3,57.6,29.53,NW,313,2.0,2.0,94,0.00,,---,0.00,VWS V14.00,2013-07-24 06:59:00,
2013-07-24 03:29:00,58.9,57.5,29.54,NE,40,1.0,3.0,95,0.00,,---,0.00,VWS V14.00,2013-07-24 07:29:00,
2013-07-24 03:59:00,57.8,55.5,29.55,NNE,13,3.0,8.0,92,0.00,,---,0.00,VWS V14.00,2013-07-24 07:59:00,
2013-07-24 04:29:00,56.5,54.5,29.57,SW,234,0.0,3.0,93,0.00,,---,0.00,VWS V14.00,2013-07-24 08:29:00,
2013-07-24 04:59:00,54.1,51.5,29.58,WNW,284,2.0,4.0,91,0.00,,---,0.00,VWS V14.00,2013-07-24 08:59:00,
2013-07-24 05:29:00,52.4,50.2,29.59,North,355,2.0,5.0,92,0.00,,---,0.00,VWS V14.00,2013-07-24 09:29:00,
2013-07-24 05:59:00,50.5,47.7,29.61,SSE,150,5.0,5.0,90,0.00,,---,0.00,VWS V14.00,2013-07-24 09:59:00,
2013-07-24 06:29:00,49.6,46.8,29.62,North,5,0.0,9.0,90,0.00,,---,0.00,VWS V14.00,2013-07-24 10:29:00,
2013-07-24 06:59:00,49.4,46.3,29.62,NNW,345,1.0,5.0,89,0.00,,---,0.00,VWS V14.00,2013-07-24 10:59:00,
2013-07-24 07:29:00,49.5,45.8,29.64,NNE,22,0.0,5.0,87,0.00,,---,0.00,VWS V14.00,2013-07-24 11:29:00,
2013-07-24 07:59:00,50.8,46.5,29.65,NW,313,2.0,6.0,85,0.00,,---,0.00,VWS V14.00,2013-07-24 11:59:00,
2013-07-24 08:29:00,52.7,46.0,29.67,NNE,28,4.0,5.0,78,0.00,,---,0.00,VWS V14.00,2013-07-24 12:29:00,
2013-07-24 08:59:00,52.6,45.6,29.68,East,87,2.0,2.0,77,0.00,,---,0.00,VWS V14.00,2013-07-24 12:59:00,
2013-07-24 09:29:00,51.6,45.6,29.70,NNE,33,3.0,3.0,80,0.00,,---,0.00,VWS V14.00,2013-07-24 13:29:00,
2013-07-24 09:59:00,51.9,46.6,29.72,SSW,200,3.0,6.0,82,0.00,,---,0.00,VWS V14.00,2013-07-24 13:59:00,
2013-07-24 10:29:00,52.1,46.5,29.74,ENE,58,1.0,6.0,81,0.00,,---,0.00,VWS V14.00,2013-07-24 14:29:00,
2013-07-24 10:59:00,51.6,46.0,29.76,ENE,75,2.0,3.0,81,0.00,,---,0.00,VWS V14.00,2013-07-24 14:59:00,
2013-07-24 11:29:00,51.2,45.6,29.78,North,350,4.0,7.0,81,0.00,,---,0.00,VWS V14.00,2013-07-24 15:29:00,
2013-07-24 11:59:00,52.3,46.0,29.79,SW,219,1.0,7.0,79,0.00,,---,0.00,VWS V14.00,2013-07-24 15:59:00,
2013-07-24 12:29:00,52.8,44.8,29.80,NNE,32,2.0,6.0,74,0.00,,---,0.00,VWS V14.00,2013-07-24 16:29:00,
2013-07-24 12:59:00,54.0,45.5,29.81,SW,223,6.0,7.0,73,0.00,,---,0.00,VWS V14.00,2013-07-24 16:59:00,
2013-07-24 13:29:00,55.9,46.3,29.81,ENE,59,0.0,7.0,70,0.00,,---,0.00,VWS V14.00,2013-07-24 17:29:00,
2013-07-24 13:59:00,57.7,45.2,29.83,WSW,257,2.0,4.0,63,0.00,,---,0.00,VWS V14.00,2013-07-24 17:59:00,
2013-07-24 14:29:00,59.2,45.8,29.83,SE,135,3.0,4.0,61,0.00,,---,0.00,VWS V14.00,2013-07-24 18:29:00,
2013-07-24 14:59:00,57.8,46.9,29.85,SSE,159,3.0,5.0,67,0.00,,---,0.00,VWS V14.00,2013-07-24 18:59:00,
2013-07-24 15:29:00,56.3,46.7,29.87,SSE,162,3.0,6.0,70,0.00,,---,0.00,VWS V14.00,2013-07-24 19:29:00,
2013-07-24 15:59:00,55.8,45.8,29.87,NNW,328,2.0,7.0,69,0.00,,---,0.00,VWS V14.00,2013-07-24 19:59:00,
2013-07-24 16:29:00,56.3,44.3,29.88,NW,304,4.0,7.0,64,0.00,,---,0.00,VWS V14.00,2013-07-24 20:29:00,
2013-07-24 16:59:00,57.1,45.5,29.89,NW,309,6.0,7.0,65,0.00,,---,0.00,VWS V14.00,2013-07-24 20:59:00,
2013-07-24 17:29:00,56.2,45.8,29.90,SW,235,6.0,12.0,68,0.00,,---,0.00,VWS V14.00,2013-07-24 21:29:00,
2013-07-24 17:59:00,55.9,46.7,29.91,ENE,59,1.0,4.0,71,0.00,,---,0.00,VWS V14.00,2013-07-24 21:59:00,
2013-07-24 18:29:00,55.3,45.3,29.92,NE,42,4.0,6.0,69,0.00,,---,0.00,VWS V14.00,2013-07-24 22:29:00,
2013-07-24 18:59:00,54.5,45.3,29.93,SSW,200,2.0,3.0,71,0.00,,---,0.00,VWS V14.00,2013-07-24 22:59:00,
2013-07-24 19:29:00,54.0,44.8,29.94,East,85,1.0,2.0,71,0.00,,---,0.00,VWS V14.00,2013-07-24 23:29:00,
2013-07-24 19:59:00,53.2,44.4,29.95,North,355,0.0,4.0,72,0.00,,---,0.00,VWS V14.00,2013-07-24 23:59:00,
2013-07-24 20:29:00,52.0,45.0,29.96,WNW,297,1.0,1.0,77,0.00,,---,0.00,VWS V14.00,2013-07-25 00:29:00,
2013-07-24 20:59:00,49.9,45.0,29.98,NW,304,0.0,0.0,83,0.00,,---,0.00,VWS V14.00,2013-07-25 00:59:00,
2013-07-24 21:29:00,47.3,43.6,30.00,NW,317,0.0,1.0,87,0.00,,---,0.00,VWS V14.00,2013-07-25 01:29:00,
2013-07-24 21:59:00,45.6,43.1,30.01,NW,321,0.0,0.0,91,0.00,,---,0.00,VWS V14.00,2013-07-25 01:59:00,
2013-07-24 22:29:00,44.5,42.6,30.02,NNW,338,0.0,0.0,93,0.00,,---,0.00,VWS V14.00,2013-07-25 02:29:00,
2013-07-24 22:59:00,43.5,41.9,30.03,NNW,344,0.0,1.0,94,0.00,,---,0.00,VWS V14.00,2013-07-25 02:59:00,
2013-07-24 23:29:00,42.7,41.1,30.05,NNE,32,0.0,2.0,94,0.00,,---,0.00,VWS V14.00,2013-07-25 03:29:00,
2013-07-24 23:59:00,42.2,40.9,30.06,NNE,32,0.0,0.0,95,0.00,,---,0.00,VWS V14.00,2013-07-25 03:59:00,